Time;durP1;ratioP1;P1;durP2;ratioP2;P2;SDS_P1;SDS_P2;PMS_P1;PMS_P2;Temp;Humidity;BMP_temperature;BMP_pressure;BME280_temperature;BME280_humidity;BME280_pressure;Samples;Min_cycle;Max_cycle;Signal;HPM_P1;HPM_P2
2022/09/29 00:03:26;;;;;;;6.10;4.23;;;5.00;99.90;;;;;;8386235;28;20233;-66
2022/09/29 00:07:28;;;;;;;4.90;3.90;;;4.90;99.90;;;;;;8380736;28;20185;-66
2022/09/29 00:11:29;;;;;;;4.27;3.87;;;4.80;99.90;;;;;;8377028;28;20194;-66
2022/09/29 00:15:30;;;;;;;6.47;3.50;;;4.70;99.90;;;;;;8379621;28;20211;-66
2022/09/29 00:19:32;;;;;;;4.97;3.50;;;4.70;99.90;;;;;;8383976;28;20220;-67
2022/09/29 00:23:34;;;;;;;3.73;3.33;;;4.70;99.90;;;;;;8384537;28;20209;-66
2022/09/29 00:27:35;;;;;;;5.73;4.10;;;4.70;99.90;;;;;;8383363;28;20189;-66
2022/09/29 00:31:35;;;;;;;4.17;3.50;;;4.70;99.90;;;;;;8383289;28;20352;-66
2022/09/29 00:35:36;;;;;;;3.67;2.93;;;4.70;99.90;;;;;;8384989;28;20181;-67
2022/09/29 00:39:37;;;;;;;4.57;3.70;;;4.70;99.90;;;;;;8389347;28;20181;-66
2022/09/29 00:44:04;;;;;;;5.07;3.53;;;4.80;99.90;;;;;;8382771;28;20217;-66
2022/09/29 00:48:13;;;;;;;5.20;3.40;;;5.00;99.90;;;;;;8384349;28;20192;-66
2022/09/29 00:52:17;;;;;;;5.13;3.50;;;5.20;99.90;;;;;;8384706;28;20189;-67
2022/09/29 00:56:18;;;;;;;4.23;3.20;;;5.50;99.90;;;;;;8381832;28;20232;-66
2022/09/29 01:00:20;;;;;;;3.67;3.23;;;5.60;99.90;;;;;;8384982;28;20212;-66
2022/09/29 01:04:21;;;;;;;4.37;3.03;;;5.80;99.90;;;;;;8379489;28;20182;-66
2022/09/29 01:08:32;;;;;;;4.20;3.50;;;6.00;99.90;;;;;;8381770;28;20207;-66
2022/09/29 01:12:34;;;;;;;6.30;3.47;;;6.20;99.90;;;;;;8383294;28;20290;-66
2022/09/29 01:16:40;;;;;;;4.97;3.80;;;6.40;99.90;;;;;;8382128;28;20204;-67
2022/09/29 01:21:10;;;;;;;6.23;4.37;;;6.50;99.90;;;;;;8392924;28;20212;-66
2022/09/29 01:25:25;;;;;;;4.73;3.93;;;6.70;99.90;;;;;;8353972;28;20189;-67
2022/09/29 01:29:52;;;;;;;5.80;4.20;;;6.80;99.90;;;;;;8381283;28;20215;-66
2022/09/29 01:34:13;;;;;;;4.73;3.57;;;6.90;99.90;;;;;;8395210;28;20181;-66
2022/09/29 01:38:32;;;;;;;4.30;3.63;;;6.90;99.90;;;;;;8383346;28;20197;-67
2022/09/29 01:42:42;;;;;;;3.97;3.57;;;7.00;99.90;;;;;;8377114;28;20724;-66
2022/09/29 01:46:58;;;;;;;4.73;4.10;;;7.00;99.90;;;;;;8382559;28;20185;-67
2022/09/29 01:51:05;;;;;;;4.27;3.60;;;7.10;99.90;;;;;;8371784;28;20217;-67
2022/09/29 01:55:14;;;;;;;3.87;3.23;;;7.10;99.90;;;;;;8377965;28;20242;-67
2022/09/29 01:59:37;;;;;;;4.03;2.87;;;7.20;99.90;;;;;;8379266;28;20220;-67
2022/09/29 02:03:45;;;;;;;4.37;2.90;;;7.20;99.90;;;;;;8378817;28;20205;-66
2022/09/29 02:07:47;;;;;;;3.87;2.77;;;7.30;99.90;;;;;;8375935;28;20216;-67
2022/09/29 02:11:51;;;;;;;4.33;3.10;;;7.30;99.90;;;;;;8380069;28;20209;-66
2022/09/29 02:15:56;;;;;;;4.83;2.97;;;7.30;99.90;;;;;;8394680;28;20220;-66
2022/09/29 02:19:57;;;;;;;4.67;2.77;;;7.30;99.90;;;;;;8380813;28;20181;-67
2022/09/29 02:23:57;;;;;;;2.67;2.47;;;7.30;99.90;;;;;;8378325;28;20196;-67
2022/09/29 02:27:58;;;;;;;3.13;2.73;;;7.30;99.90;;;;;;8384084;28;20184;-66
2022/09/29 02:32:01;;;;;;;5.97;3.00;;;7.20;99.90;;;;;;8379776;28;20193;-67
2022/09/29 02:36:08;;;;;;;3.53;2.83;;;7.20;99.90;;;;;;8381871;28;20271;-67
2022/09/29 02:40:24;;;;;;;3.67;3.03;;;7.10;99.90;;;;;;8380185;28;20236;-67
2022/09/29 02:44:25;;;;;;;4.00;2.90;;;7.00;99.90;;;;;;8383530;28;20273;-67
2022/09/29 02:48:35;;;;;;;3.50;3.20;;;7.00;99.90;;;;;;8381759;28;20216;-67
2022/09/29 02:53:01;;;;;;;3.23;2.80;;;6.90;99.90;;;;;;8387444;28;20290;-67
2022/09/29 02:57:11;;;;;;;3.43;2.70;;;6.80;99.90;;;;;;8389498;28;20375;-66
2022/09/29 03:01:15;;;;;;;3.37;2.67;;;6.60;99.90;;;;;;8384363;28;20220;-67
2022/09/29 03:05:19;;;;;;;3.20;2.80;;;6.40;99.90;;;;;;8385211;28;20178;-69
2022/09/29 03:09:20;;;;;;;4.00;2.80;;;6.20;99.90;;;;;;8386504;28;20177;-67
2022/09/29 03:13:21;;;;;;;4.53;2.93;;;6.00;99.90;;;;;;8378948;28;20209;-66
2022/09/29 03:17:22;;;;;;;4.00;3.13;;;5.80;99.90;;;;;;8384393;28;20189;-66
2022/09/29 03:21:28;;;;;;;4.00;3.40;;;5.70;99.90;;;;;;8387180;28;20232;-67
2022/09/29 03:25:29;;;;;;;4.77;3.50;;;5.70;99.90;;;;;;8386779;28;20214;-67
2022/09/29 03:29:30;;;;;;;5.27;3.90;;;5.70;99.90;;;;;;8385392;28;20193;-67
2022/09/29 03:33:31;;;;;;;6.47;3.93;;;5.60;99.90;;;;;;8384883;28;20193;-66
2022/09/29 03:37:32;;;;;;;4.33;3.30;;;5.60;99.90;;;;;;8386598;28;20193;-67
2022/09/29 03:41:33;;;;;;;4.33;3.50;;;5.60;99.90;;;;;;8386661;28;20288;-66
2022/09/29 03:45:34;;;;;;;6.00;3.90;;;5.50;99.90;;;;;;8382592;28;20189;-67
2022/09/29 03:49:34;;;;;;;4.50;3.60;;;5.30;99.90;;;;;;8385456;28;20216;-67
2022/09/29 03:53:36;;;;;;;4.20;3.67;;;5.20;99.90;;;;;;8385629;28;20193;-67
2022/09/29 03:57:36;;;;;;;3.97;3.57;;;5.00;99.90;;;;;;8385479;28;20189;-66
2022/09/29 04:01:38;;;;;;;5.17;3.80;;;4.90;99.90;;;;;;8383301;28;20282;-67
2022/09/29 04:05:39;;;;;;;4.97;3.70;;;4.80;99.90;;;;;;8383727;28;20181;-67
2022/09/29 04:09:40;;;;;;;3.40;2.83;;;4.70;99.90;;;;;;8397725;28;20327;-67
2022/09/29 04:13:41;;;;;;;3.97;3.20;;;4.60;99.90;;;;;;8384531;28;20217;-67
2022/09/29 04:17:42;;;;;;;19.43;11.63;;;4.40;99.90;;;;;;8386305;28;20250;-67
2022/09/29 04:21:43;;;;;;;20.30;12.37;;;4.30;99.90;;;;;;8400666;28;20212;-67
2022/09/29 04:25:44;;;;;;;16.10;10.27;;;4.30;99.90;;;;;;8384305;28;20192;-67
2022/09/29 04:29:48;;;;;;;11.87;8.93;;;4.20;99.90;;;;;;8385202;28;20784;-67
2022/09/29 04:33:48;;;;;;;17.13;9.93;;;4.20;99.90;;;;;;8396014;28;20280;-67
2022/09/29 04:37:53;;;;;;;23.23;12.97;;;4.10;99.90;;;;;;8383658;28;20191;-67
2022/09/29 04:41:54;;;;;;;15.97;8.87;;;4.00;99.90;;;;;;8397956;28;20259;-67
2022/09/29 04:46:02;;;;;;;5.20;4.30;;;3.90;99.90;;;;;;8381798;28;20266;-67
2022/09/29 04:50:03;;;;;;;4.33;3.40;;;3.80;99.90;;;;;;8396035;28;20192;-67
2022/09/29 04:54:04;;;;;;;3.20;2.60;;;3.70;99.90;;;;;;8381554;28;20631;-67
2022/09/29 04:58:05;;;;;;;4.63;2.80;;;3.70;99.90;;;;;;8382084;28;20190;-67
2022/09/29 05:02:06;;;;;;;4.20;3.07;;;3.70;99.90;;;;;;8383588;28;20500;-67
2022/09/29 05:06:08;;;;;;;3.37;2.73;;;3.60;99.90;;;;;;8380300;28;20175;-67
2022/09/29 05:10:09;;;;;;;4.53;2.87;;;3.50;99.90;;;;;;8380255;28;20195;-67
2022/09/29 05:14:10;;;;;;;3.33;3.00;;;3.40;99.90;;;;;;8381396;28;20205;-67
2022/09/29 05:18:11;;;;;;;7.67;3.23;;;3.40;99.90;;;;;;8377242;28;20176;-67
2022/09/29 05:22:12;;;;;;;4.60;3.63;;;3.40;99.90;;;;;;8381370;28;20236;-67
2022/09/29 05:26:12;;;;;;;4.53;3.93;;;3.50;99.90;;;;;;8378169;28;20174;-67
2022/09/29 05:30:13;;;;;;;4.87;3.80;;;3.50;99.90;;;;;;8384262;28;20188;-69
2022/09/29 05:34:14;;;;;;;4.83;3.70;;;3.50;99.90;;;;;;8379188;28;20205;-67
2022/09/29 05:38:15;;;;;;;4.33;3.63;;;3.60;99.90;;;;;;8381411;28;20173;-67
2022/09/29 05:42:16;;;;;;;5.37;3.70;;;3.60;99.90;;;;;;8381227;28;20213;-67
2022/09/29 05:46:17;;;;;;;4.40;3.40;;;3.70;99.90;;;;;;8380663;28;20177;-67
2022/09/29 05:50:18;;;;;;;5.27;3.57;;;3.70;99.90;;;;;;8378723;28;20190;-67
2022/09/29 05:54:19;;;;;;;3.83;3.10;;;3.80;99.90;;;;;;8379339;28;20205;-68
2022/09/29 05:58:19;;;;;;;4.83;3.97;;;3.90;99.90;;;;;;8382721;28;20183;-67
2022/09/29 06:02:21;;;;;;;4.90;3.57;;;4.10;99.90;;;;;;8376583;28;20203;-68
2022/09/29 06:06:26;;;;;;;5.17;3.90;;;4.40;99.90;;;;;;8378341;28;20180;-68
2022/09/29 06:10:27;;;;;;;4.50;3.10;;;4.70;99.90;;;;;;8378974;28;20241;-68
2022/09/29 06:14:28;;;;;;;4.73;3.77;;;4.90;99.90;;;;;;8379734;28;20228;-68
2022/09/29 06:18:30;;;;;;;7.53;4.37;;;5.20;99.90;;;;;;8382019;28;20212;-68
2022/09/29 06:22:31;;;;;;;6.07;4.13;;;5.50;99.90;;;;;;8383258;28;20216;-67
2022/09/29 06:26:32;;;;;;;5.90;4.03;;;5.70;99.90;;;;;;8388968;28;20196;-67
2022/09/29 06:30:33;;;;;;;5.67;4.50;;;5.90;99.90;;;;;;8385798;28;20184;-67
2022/09/29 06:34:34;;;;;;;4.60;3.70;;;6.10;99.90;;;;;;8386796;28;20241;-67
2022/09/29 06:38:36;;;;;;;6.50;5.70;;;6.40;99.90;;;;;;8387316;28;20181;-67
2022/09/29 06:42:37;;;;;;;9.00;7.03;;;6.60;99.90;;;;;;8387249;28;20208;-67
2022/09/29 20:04:10;;;;;;;3.33;2.50;;;4.70;99.90;;;;;;8390274;27;20327;-67
2022/09/29 20:08:14;;;;;;;7.10;3.10;;;4.50;99.90;;;;;;8381608;28;20185;-67
2022/09/29 20:12:15;;;;;;;5.23;2.67;;;4.50;99.90;;;;;;8386846;28;20303;-68
2022/09/29 20:16:16;;;;;;;2.70;2.50;;;4.50;99.90;;;;;;8386087;28;20187;-68
2022/09/29 20:20:17;;;;;;;6.33;3.30;;;4.40;99.90;;;;;;8391892;28;20199;-68
2022/09/29 20:24:20;;;;;;;5.67;3.37;;;4.30;99.90;;;;;;8381506;28;20188;-68
2022/09/29 20:28:21;;;;;;;5.07;3.33;;;4.30;99.90;;;;;;8386632;28;20181;-68
2022/09/29 20:32:22;;;;;;;2.93;2.63;;;4.30;99.90;;;;;;8389030;28;20202;-68
2022/09/29 20:36:22;;;;;;;4.83;3.40;;;4.20;99.90;;;;;;8383025;28;20189;-68
2022/09/29 20:40:23;;;;;;;6.07;3.83;;;4.10;99.90;;;;;;8387769;28;20227;-68
2022/09/29 20:44:25;;;;;;;10.90;5.50;;;4.00;99.90;;;;;;8380730;28;20237;-68
2022/09/29 20:48:28;;;;;;;16.20;8.33;;;4.00;99.90;;;;;;8382909;28;20186;-68
2022/09/29 20:52:29;;;;;;;18.57;8.10;;;3.90;99.90;;;;;;8389986;28;20191;-68
2022/09/29 20:56:34;;;;;;;4.13;3.20;;;3.90;99.90;;;;;;8376743;28;20189;-68
2022/09/29 21:00:35;;;;;;;3.43;2.43;;;3.80;99.90;;;;;;8385804;28;20305;-68
2022/09/29 21:04:38;;;;;;;2.90;2.27;;;3.70;99.90;;;;;;8386648;28;20293;-68
2022/09/29 21:08:40;;;;;;;4.13;2.27;;;3.60;99.90;;;;;;8373022;28;20194;-68
2022/09/29 21:12:41;;;;;;;4.23;2.87;;;3.60;99.90;;;;;;8378791;28;20267;-68
2022/09/29 21:16:47;;;;;;;10.17;5.20;;;3.60;99.90;;;;;;8364085;28;20262;-68
2022/09/29 21:20:52;;;;;;;27.70;11.93;;;3.60;99.90;;;;;;8360279;28;20293;-68
2022/09/29 21:24:53;;;;;;;19.50;8.90;;;3.60;99.90;;;;;;8365064;28;20265;-68
2022/09/29 21:28:55;;;;;;;9.83;5.70;;;3.50;99.90;;;;;;8363750;28;20184;-68
2022/09/29 21:32:56;;;;;;;6.10;3.83;;;3.50;99.90;;;;;;8359853;28;20179;-68
2022/09/29 21:36:57;;;;;;;4.60;3.13;;;3.40;99.90;;;;;;8362673;28;20214;-68
2022/09/29 21:41:07;;;;;;;3.80;3.17;;;3.30;99.90;;;;;;8360715;28;20208;-68
2022/09/29 21:45:09;;;;;;;3.20;2.67;;;3.20;99.90;;;;;;8359924;28;20304;-68
2022/09/29 21:49:12;;;;;;;4.80;3.33;;;3.10;99.90;;;;;;8356682;28;20183;-68
2022/09/29 21:53:12;;;;;;;3.50;3.20;;;3.00;99.90;;;;;;8365503;28;20189;-68
2022/09/29 21:57:14;;;;;;;3.63;2.67;;;3.00;99.90;;;;;;8360102;28;20195;-68
2022/09/29 22:01:15;;;;;;;4.00;2.80;;;2.90;99.90;;;;;;8360386;28;20214;-68
2022/09/29 22:05:16;;;;;;;4.10;3.23;;;2.90;99.90;;;;;;8360456;28;20178;-68
2022/09/29 22:09:19;;;;;;;3.30;3.00;;;2.90;99.90;;;;;;8354746;28;20175;-68
2022/09/29 22:13:24;;;;;;;3.53;2.97;;;2.80;99.90;;;;;;8363095;28;20202;-68
2022/09/29 22:17:25;;;;;;;4.43;3.53;;;2.80;99.90;;;;;;8357460;28;20275;-68
2022/09/29 22:21:26;;;;;;;5.03;3.30;;;2.80;99.90;;;;;;8361268;28;20223;-68
2022/09/29 22:25:27;;;;;;;8.00;4.47;;;2.70;99.90;;;;;;8356772;28;20187;-68
2022/09/29 22:29:28;;;;;;;8.17;4.90;;;2.70;99.90;;;;;;8351001;28;20183;-69
2022/09/29 22:33:30;;;;;;;8.00;5.73;;;2.70;99.90;;;;;;8358539;28;20191;-69
2022/09/29 22:37:30;;;;;;;6.87;4.43;;;2.70;99.90;;;;;;8357519;28;20308;-69
2022/09/29 22:41:35;;;;;;;5.70;3.93;;;2.60;99.90;;;;;;8356613;28;20315;-69
2022/09/29 22:45:36;;;;;;;5.47;4.47;;;2.50;99.90;;;;;;8360308;28;20190;-69
2022/09/29 22:49:36;;;;;;;5.73;4.07;;;2.50;99.90;;;;;;8359967;28;20286;-69
2022/09/29 22:53:37;;;;;;;7.93;4.43;;;2.40;99.90;;;;;;8358014;28;20254;-69
2022/09/29 22:57:38;;;;;;;4.40;3.80;;;2.30;99.90;;;;;;8360148;28;20189;-69
2022/09/29 23:01:39;;;;;;;6.13;3.97;;;2.30;99.90;;;;;;8360271;28;20220;-69
2022/09/29 23:05:40;;;;;;;5.90;4.17;;;2.20;99.90;;;;;;8361778;28;20178;-69
2022/09/29 23:09:41;;;;;;;8.90;4.70;;;2.20;99.90;;;;;;8348175;28;20196;-70
2022/09/29 23:13:42;;;;;;;7.83;5.80;;;2.10;99.90;;;;;;8355409;28;20213;-70
2022/09/29 23:17:43;;;;;;;9.37;6.43;;;2.10;99.90;;;;;;8362008;28;20182;-69
2022/09/29 23:21:44;;;;;;;9.53;6.87;;;2.10;99.90;;;;;;8356641;28;20206;-69
2022/09/29 23:25:48;;;;;;;8.57;6.63;;;2.10;99.90;;;;;;8361819;28;20191;-69
2022/09/29 23:29:49;;;;;;;8.10;5.90;;;2.10;99.90;;;;;;8362361;28;20200;-70
2022/09/29 23:33:57;;;;;;;11.07;7.30;;;2.00;99.90;;;;;;8360302;28;20248;-70
2022/09/29 23:42:17;;;;;;;32.17;19.83;;;2.00;99.90;;;;;;8349977;28;20218;-69
2022/09/29 23:46:18;;;;;;;27.00;16.47;;;2.00;99.90;;;;;;8356062;28;20178;-69
2022/09/29 23:50:19;;;;;;;16.77;11.37;;;1.90;99.90;;;;;;8360601;28;20205;-69
2022/09/29 23:54:22;;;;;;;13.07;8.67;;;1.80;99.90;;;;;;8354471;28;20182;-70
2022/09/29 23:58:23;;;;;;;9.53;5.90;;;1.70;99.90;;;;;;8356583;28;20297;-69
